createdAt,value
2022-09-18T00:00:45.121Z,7.20
2022-09-18T00:03:19.267Z,8.75
2022-09-18T00:05:53.569Z,7.00
2022-09-18T00:08:27.713Z,8.50
2022-09-18T00:11:02.097Z,5.00
2022-09-18T00:13:36.123Z,9.60
2022-09-18T00:16:10.234Z,7.00
2022-09-18T00:18:44.420Z,9.25
2022-09-18T00:21:18.493Z,7.60
2022-09-18T00:23:52.541Z,4.20
2022-09-18T00:26:26.722Z,9.25
2022-09-18T00:29:00.743Z,9.60
2022-09-18T00:31:34.962Z,6.80
2022-09-18T00:34:09.495Z,7.00
2022-09-18T00:36:43.536Z,9.40
2022-09-18T00:39:17.652Z,7.60
2022-09-18T00:41:52.310Z,7.00
2022-09-18T00:44:26.421Z,7.00
2022-09-18T00:47:00.680Z,11.00
2022-09-18T00:49:34.680Z,8.40
2022-09-18T00:52:08.758Z,11.00
2022-09-18T00:54:42.758Z,10.00
2022-09-18T00:57:17.016Z,9.00
2022-09-18T00:59:51.054Z,9.00
2022-09-18T01:02:25.200Z,10.25
2022-09-18T01:04:59.355Z,9.00
2022-09-18T01:07:33.617Z,7.50
2022-09-18T01:10:07.724Z,11.25
2022-09-18T01:12:41.745Z,10.00
2022-09-18T01:15:15.853Z,9.00
2022-09-18T01:17:49.816Z,8.25
2022-09-18T01:20:24.321Z,7.50
2022-09-18T01:22:58.353Z,8.80
2022-09-18T01:25:32.588Z,7.50
2022-09-18T01:28:06.583Z,9.00
2022-09-18T01:30:40.720Z,8.00
2022-09-18T01:33:14.834Z,7.00
2022-09-18T01:35:48.836Z,10.60
2022-09-18T01:38:22.948Z,8.00
2022-09-18T01:40:57.385Z,8.00
2022-09-18T01:43:31.547Z,9.00
2022-09-18T01:46:05.855Z,8.00
2022-09-18T01:48:40.610Z,10.40
2022-09-18T01:51:14.732Z,11.00
2022-09-18T01:53:48.952Z,10.00
2022-09-18T01:56:22.967Z,14.25
2022-09-18T01:58:57.132Z,9.00
2022-09-18T02:01:31.997Z,12.25
2022-09-18T02:04:06.215Z,13.00
2022-09-18T02:06:40.809Z,10.50
2022-09-18T02:09:15.212Z,10.25
2022-09-18T02:11:49.225Z,9.80
2022-09-18T02:14:23.253Z,12.00
2022-09-18T02:16:57.245Z,10.40
2022-09-18T02:19:31.212Z,10.50
2022-09-18T02:22:05.462Z,14.25
2022-09-18T02:24:39.466Z,11.00
2022-09-18T02:27:13.500Z,10.60
2022-09-18T02:29:47.532Z,11.60
2022-09-18T02:32:21.593Z,13.00
2022-09-18T02:34:55.599Z,9.00
2022-09-18T02:37:29.599Z,11.50
2022-09-18T02:40:04.919Z,12.50
2022-09-18T02:42:38.980Z,11.60
2022-09-18T02:45:13.209Z,12.00
2022-09-18T02:47:47.674Z,9.40
2022-09-18T02:50:21.786Z,17.00
2022-09-18T02:52:55.911Z,14.75
2022-09-18T02:55:29.835Z,15.00
2022-09-18T02:58:03.800Z,12.60
2022-09-18T03:00:37.935Z,15.75
2022-09-18T03:03:11.960Z,13.20
2022-09-18T03:05:46.082Z,15.00
2022-09-18T03:08:20.189Z,13.00
2022-09-18T03:10:55.151Z,16.00
2022-09-18T03:13:29.312Z,16.00
2022-09-18T03:16:03.489Z,17.00
2022-09-18T03:18:37.517Z,13.50
2022-09-18T03:21:11.661Z,14.40
2022-09-18T03:23:45.870Z,14.40
2022-09-18T03:26:19.912Z,15.33
2022-09-18T03:28:54.015Z,13.00
2022-09-18T03:31:28.077Z,14.00
2022-09-18T03:34:02.211Z,13.80
2022-09-18T03:36:36.316Z,11.75
2022-09-18T03:39:10.326Z,12.75
2022-09-18T03:41:44.478Z,17.75
2022-09-18T03:44:18.572Z,15.80
2022-09-18T03:46:52.759Z,15.20
2022-09-18T03:49:27.386Z,15.00
2022-09-18T03:52:01.437Z,12.00
2022-09-18T03:54:35.481Z,15.40
2022-09-18T03:57:09.508Z,14.50
2022-09-18T03:59:43.484Z,14.50
2022-09-18T04:02:17.730Z,15.80
2022-09-18T04:04:52.054Z,13.50
2022-09-18T04:07:26.357Z,13.40
2022-09-18T04:10:00.473Z,14.00
2022-09-18T04:12:34.544Z,16.00
2022-09-18T04:15:08.772Z,13.00
2022-09-18T04:17:43.547Z,12.00
2022-09-18T04:20:17.713Z,14.00
2022-09-18T04:22:51.761Z,15.60
2022-09-18T04:25:25.774Z,16.80
2022-09-18T04:27:59.929Z,15.00
2022-09-18T04:30:35.225Z,16.00
2022-09-18T04:33:09.399Z,16.75
2022-09-18T04:35:43.427Z,15.60
2022-09-18T04:38:17.545Z,19.60
2022-09-18T04:40:51.505Z,18.40
2022-09-18T04:43:25.691Z,19.00
2022-09-18T04:45:59.861Z,21.00
2022-09-18T04:48:34.001Z,18.40
2022-09-18T04:51:08.187Z,21.20
2022-09-18T04:53:42.284Z,20.75
2022-09-18T04:56:16.291Z,23.00
2022-09-18T04:58:50.283Z,25.00
2022-09-18T05:01:24.542Z,24.00
2022-09-18T05:03:58.652Z,26.60
2022-09-18T05:06:32.916Z,25.60
2022-09-18T05:09:07.080Z,25.75
2022-09-18T05:11:41.256Z,26.80
2022-09-18T05:14:15.475Z,21.00
2022-09-18T05:16:49.683Z,27.50
2022-09-18T05:19:23.862Z,24.50
2022-09-18T05:21:57.999Z,25.75
2022-09-18T05:24:32.270Z,24.00
2022-09-18T05:27:06.432Z,22.40
2022-09-18T05:29:40.621Z,23.75
2022-09-18T05:32:14.835Z,21.00
2022-09-18T05:34:50.903Z,27.00
2022-09-18T05:37:25.124Z,27.00
2022-09-18T05:39:59.186Z,30.40
2022-09-18T05:42:33.212Z,65.00
2022-09-18T05:45:07.401Z,61.00
2022-09-18T05:47:41.536Z,65.25
2022-09-18T05:50:16.143Z,53.00
2022-09-18T05:52:50.270Z,49.40
2022-09-18T05:55:24.291Z,45.50
2022-09-18T05:57:58.272Z,64.25
2022-09-18T06:00:32.515Z,48.20
2022-09-18T06:03:06.603Z,49.00
2022-09-18T06:05:40.839Z,44.40
2022-09-18T06:08:15.022Z,48.60
2022-09-18T06:10:49.052Z,39.50
2022-09-18T06:13:23.065Z,41.75
2022-09-18T06:15:58.506Z,42.50
2022-09-18T06:18:32.560Z,38.75
2022-09-18T06:21:07.866Z,39.40
2022-09-18T06:23:42.376Z,38.50
2022-09-18T06:26:16.922Z,38.75
2022-09-18T06:28:52.369Z,35.50
2022-09-18T06:31:26.537Z,34.75
2022-09-18T06:34:00.723Z,31.00
2022-09-18T06:36:34.943Z,34.25
2022-09-18T06:39:09.117Z,31.40
2022-09-18T06:41:43.942Z,26.60
2022-09-18T06:44:17.929Z,38.25
2022-09-18T06:46:51.925Z,35.25
2022-09-18T06:49:26.385Z,31.00
2022-09-18T06:52:00.643Z,33.75
2022-09-18T06:54:34.634Z,31.75
2022-09-18T06:57:08.776Z,29.25
2022-09-18T06:59:42.873Z,27.75
2022-09-18T07:02:19.615Z,26.80
2022-09-18T07:04:53.918Z,27.40
2022-09-18T07:07:28.724Z,23.50
2022-09-18T07:10:06.967Z,27.00
2022-09-18T07:12:43.484Z,21.50
2022-09-18T07:15:17.505Z,27.80
2022-09-18T07:17:52.928Z,29.75
2022-09-18T07:20:26.952Z,29.00
2022-09-18T07:23:01.125Z,29.00
2022-09-18T07:25:35.447Z,25.00
2022-09-18T07:28:09.526Z,24.00
2022-09-18T07:30:43.624Z,32.00
2022-09-18T07:33:17.784Z,30.00
2022-09-18T07:35:51.844Z,29.00
2022-09-18T07:38:26.013Z,24.40
2022-09-18T07:41:00.047Z,28.40
2022-09-18T07:43:34.185Z,30.60
2022-09-18T07:46:09.051Z,25.80
2022-09-18T07:48:43.148Z,21.00
2022-09-18T07:51:17.317Z,21.00
2022-09-18T07:53:51.530Z,24.50
2022-09-18T07:56:25.560Z,25.50
2022-09-18T07:58:59.561Z,24.60
2022-09-18T08:01:33.886Z,23.20
2022-09-18T08:04:08.222Z,23.25
2022-09-18T08:06:42.546Z,22.00
2022-09-18T08:09:16.750Z,21.00
2022-09-18T08:11:50.724Z,25.40
2022-09-18T08:14:28.771Z,27.20
2022-09-18T08:17:03.422Z,23.75
2022-09-18T08:19:37.573Z,29.40
2022-09-18T08:22:11.766Z,26.40
2022-09-18T08:24:45.878Z,116.00
2022-09-18T08:27:19.901Z,442.40
2022-09-18T08:29:53.946Z,496.40
2022-09-18T08:32:27.933Z,532.40
2022-09-18T08:35:02.667Z,768.17
2022-09-18T08:37:36.879Z,834.20
2022-09-18T08:40:11.813Z,743.00
2022-09-18T08:42:45.977Z,895.67
2022-09-18T08:45:20.283Z,699.20
2022-09-18T08:47:54.295Z,328.40
2022-09-18T08:50:29.799Z,263.60
2022-09-18T08:53:04.667Z,195.50
2022-09-18T08:55:38.755Z,226.80
2022-09-18T08:58:12.731Z,157.00
2022-09-18T09:00:47.034Z,163.75
2022-09-18T09:03:21.119Z,127.40
2022-09-18T09:05:55.365Z,115.25
2022-09-18T09:08:29.667Z,93.75
2022-09-18T09:11:03.864Z,75.00
2022-09-18T09:13:38.970Z,75.00
2022-09-18T09:16:13.145Z,68.75
2022-09-18T09:18:47.283Z,60.50
2022-09-18T09:21:21.434Z,50.40
2022-09-18T09:23:56.691Z,49.40
2022-09-18T09:26:33.070Z,47.00
2022-09-18T09:29:07.016Z,44.50
2022-09-18T09:31:42.541Z,39.00
2022-09-18T09:34:16.705Z,40.60
2022-09-18T09:36:50.753Z,34.75
2022-09-18T09:39:25.032Z,28.00
2022-09-18T09:41:59.103Z,30.00
2022-09-18T09:44:33.168Z,31.80
2022-09-18T09:47:07.434Z,26.25
2022-09-18T09:49:41.994Z,27.60
2022-09-18T09:52:16.119Z,31.75
2022-09-18T09:54:50.125Z,27.00
2022-09-18T09:57:24.164Z,35.50
2022-09-18T09:59:58.168Z,29.00
2022-09-18T10:02:32.381Z,32.25
2022-09-18T10:05:06.562Z,27.00
2022-09-18T10:07:40.805Z,27.00
2022-09-18T10:10:17.785Z,24.80
2022-09-18T10:12:53.248Z,25.00
2022-09-18T10:15:27.261Z,30.50
2022-09-18T10:18:01.281Z,29.00
2022-09-18T10:20:35.309Z,22.50
2022-09-18T10:23:09.731Z,26.00
2022-09-18T10:25:43.693Z,28.25
2022-09-18T10:28:17.870Z,45.60
2022-09-18T10:30:51.856Z,39.75
2022-09-18T10:33:26.046Z,31.50
2022-09-18T10:36:00.171Z,29.50
2022-09-18T10:38:34.342Z,34.50
2022-09-18T10:41:08.471Z,32.40
2022-09-18T10:43:42.532Z,38.60
2022-09-18T10:46:16.646Z,31.00
2022-09-18T10:48:51.101Z,30.75
2022-09-18T10:51:30.086Z,38.50
2022-09-18T10:54:05.001Z,33.60
2022-09-18T10:56:39.023Z,35.75
2022-09-18T10:59:13.182Z,30.40
2022-09-18T11:01:47.450Z,34.60
2022-09-18T11:04:22.286Z,39.00
2022-09-18T11:06:56.435Z,40.00
2022-09-18T11:09:30.635Z,40.20
2022-09-18T11:12:04.956Z,49.40
2022-09-18T11:14:39.157Z,46.75
2022-09-18T11:17:13.137Z,41.25
2022-09-18T11:19:47.194Z,46.80
2022-09-18T11:22:21.351Z,43.75
2022-09-18T11:24:55.375Z,44.00
2022-09-18T11:27:32.829Z,45.75
2022-09-18T11:30:06.941Z,42.00
2022-09-18T11:32:41.068Z,39.25
2022-09-18T11:35:16.382Z,39.00
2022-09-18T11:37:50.559Z,38.50
2022-09-18T11:40:24.795Z,43.20
2022-09-18T11:42:58.910Z,42.00
2022-09-18T11:45:33.099Z,39.80
2022-09-18T11:48:07.394Z,38.75
2022-09-18T11:50:41.521Z,34.20
2022-09-18T11:53:15.716Z,45.75
2022-09-18T11:55:50.611Z,38.00
2022-09-18T11:58:25.735Z,38.00
2022-09-18T12:01:05.527Z,39.00
2022-09-18T12:03:39.820Z,37.25
2022-09-18T12:06:14.152Z,37.00
2022-09-18T12:08:46.882Z,41.25
2022-09-18T12:11:21.058Z,37.60
2022-09-18T12:13:55.288Z,35.80
2022-09-18T12:16:29.970Z,30.00
2022-09-18T12:19:04.165Z,35.50
2022-09-18T12:21:38.502Z,30.00
2022-09-18T12:24:12.693Z,25.40
2022-09-18T12:26:46.797Z,31.00
2022-09-18T12:29:23.209Z,29.00
2022-09-18T12:32:01.517Z,25.20
2022-09-18T12:34:35.771Z,33.00
2022-09-18T12:37:09.883Z,28.75
2022-09-18T12:39:44.763Z,27.20
2022-09-18T12:42:19.090Z,29.00
2022-09-18T12:44:54.628Z,31.60
2022-09-18T12:47:29.051Z,27.40
2022-09-18T12:50:03.497Z,24.75
2022-09-18T12:52:46.747Z,27.67
2022-09-18T12:55:31.210Z,28.20
2022-09-18T12:58:05.258Z,25.75
2022-09-18T13:00:39.419Z,22.60
2022-09-18T13:03:13.550Z,24.00
2022-09-18T13:08:23.685Z,27.25
2022-09-18T13:10:57.739Z,26.80
2022-09-18T13:13:31.724Z,21.20
2022-09-18T13:16:07.603Z,25.20
2022-09-18T13:18:43.251Z,29.75
2022-09-18T13:21:18.440Z,19.00
2022-09-18T13:23:52.469Z,17.50
2022-09-18T13:26:26.479Z,21.00
2022-09-18T13:29:00.712Z,18.00
2022-09-18T13:31:35.114Z,18.50
2022-09-18T13:34:09.377Z,19.60
2022-09-18T13:36:43.408Z,20.00
2022-09-18T13:39:17.578Z,20.00
2022-09-18T13:41:51.663Z,24.00
2022-09-18T13:44:25.903Z,23.00
2022-09-18T13:47:00.136Z,35.60
2022-09-18T13:49:34.277Z,33.80
2022-09-18T13:52:08.345Z,24.60
2022-09-18T13:54:42.648Z,24.80
2022-09-18T13:57:16.688Z,27.60
2022-09-18T13:59:50.870Z,26.00
2022-09-18T14:02:24.994Z,28.75
2022-09-18T14:04:59.303Z,19.00
2022-09-18T14:07:33.440Z,21.60
2022-09-18T14:10:07.609Z,23.00
2022-09-18T14:12:41.744Z,23.60
2022-09-18T14:15:15.817Z,24.00
2022-09-18T14:17:50.038Z,20.00
2022-09-18T14:20:24.057Z,20.40
2022-09-18T14:22:58.624Z,22.20
2022-09-18T14:25:32.983Z,19.00
2022-09-18T14:28:07.189Z,17.40
2022-09-18T14:30:41.227Z,20.00
2022-09-18T14:33:15.524Z,22.60
2022-09-18T14:35:49.555Z,19.00
2022-09-18T14:38:24.235Z,24.00
2022-09-18T14:40:58.391Z,20.40
2022-09-18T14:43:32.435Z,20.00
2022-09-18T14:46:10.140Z,29.50
2022-09-18T14:48:46.970Z,25.00
2022-09-18T14:51:22.104Z,22.00
2022-09-18T14:53:56.884Z,29.50
2022-09-18T14:56:30.990Z,32.60
2022-09-18T14:59:05.287Z,32.40
2022-09-18T15:01:39.404Z,35.67
2022-09-18T15:04:13.638Z,31.00
2022-09-18T15:06:47.741Z,27.00
2022-09-18T15:09:21.852Z,29.33
2022-09-18T15:12:02.546Z,24.00
2022-09-18T15:14:44.186Z,31.50
2022-09-18T15:17:19.947Z,24.25
2022-09-18T15:22:34.957Z,28.60
2022-09-18T15:25:09.460Z,30.00
2022-09-18T15:27:43.595Z,28.75
2022-09-18T15:30:17.819Z,28.00
2022-09-18T15:32:51.953Z,28.00
2022-09-18T15:35:27.086Z,30.40
2022-09-18T15:38:03.106Z,29.60
2022-09-18T15:40:37.740Z,25.40
2022-09-18T15:43:11.920Z,24.00
2022-09-18T15:45:46.067Z,24.00
2022-09-18T15:48:20.171Z,23.00
2022-09-18T15:50:54.324Z,22.60
2022-09-18T15:53:28.815Z,25.60
2022-09-18T15:56:02.859Z,26.00
2022-09-18T15:58:37.999Z,27.80
2022-09-18T16:01:12.183Z,28.33
2022-09-18T16:03:46.552Z,27.50
2022-09-18T16:06:20.691Z,31.00
2022-09-18T16:08:54.982Z,27.75
2022-09-18T16:11:29.756Z,31.40
2022-09-18T16:14:03.836Z,26.00
2022-09-18T16:16:37.898Z,29.75
2022-09-18T16:19:14.066Z,28.00
2022-09-18T16:21:48.095Z,29.60
2022-09-18T16:24:22.375Z,29.00
2022-09-18T16:26:56.498Z,27.00
2022-09-18T16:29:30.552Z,22.60
2022-09-18T16:32:04.730Z,25.75
2022-09-18T16:34:38.827Z,35.50
2022-09-18T16:37:13.179Z,28.60
2022-09-18T16:39:47.347Z,25.60
2022-09-18T16:42:21.474Z,31.40
2022-09-18T16:44:56.549Z,28.50
2022-09-18T16:47:31.051Z,22.00
2022-09-18T16:50:05.353Z,31.00
2022-09-18T16:52:39.568Z,29.00
2022-09-18T16:55:13.581Z,30.75
2022-09-18T16:57:47.609Z,26.00
2022-09-18T17:00:21.777Z,30.00
2022-09-18T17:02:58.928Z,32.50
2022-09-18T17:05:33.065Z,26.60
2022-09-18T17:08:07.337Z,27.50
2022-09-18T17:10:45.040Z,31.40
2022-09-18T17:13:19.364Z,23.40
2022-09-18T17:15:53.737Z,27.00
2022-09-18T17:18:27.965Z,26.80
2022-09-18T17:21:02.771Z,25.50
2022-09-18T17:23:37.602Z,30.00
2022-09-18T17:26:11.708Z,28.60
2022-09-18T17:28:45.810Z,29.25
2022-09-18T17:31:20.002Z,30.40
2022-09-18T17:33:54.114Z,33.00
2022-09-18T17:36:28.656Z,27.75
2022-09-18T17:39:02.843Z,29.50
2022-09-18T17:41:36.913Z,21.80
2022-09-18T17:44:11.095Z,26.75
2022-09-18T17:46:45.447Z,27.40
2022-09-18T17:49:19.571Z,23.60
2022-09-18T17:51:53.539Z,20.33
2022-09-18T17:54:28.552Z,24.00
2022-09-18T17:57:02.637Z,24.20
2022-09-18T17:59:36.641Z,23.00
2022-09-18T18:02:13.174Z,23.00
2022-09-18T18:04:47.364Z,26.20
2022-09-18T18:07:21.599Z,20.00
2022-09-18T18:10:00.212Z,20.00
2022-09-18T18:12:34.301Z,27.20
2022-09-18T18:15:08.494Z,22.60
2022-09-18T18:17:42.869Z,21.60
2022-09-18T18:20:18.651Z,20.00
2022-09-18T18:22:52.634Z,18.00
2022-09-18T18:25:28.102Z,19.00
2022-09-18T18:28:02.538Z,18.75
2022-09-18T18:30:36.760Z,22.20
2022-09-18T18:33:11.211Z,20.00
2022-09-18T18:35:45.602Z,20.00
2022-09-18T18:38:21.340Z,17.00
2022-09-18T18:40:55.377Z,21.00
2022-09-18T18:43:29.823Z,18.40
2022-09-18T18:46:04.176Z,17.50
2022-09-18T18:48:39.667Z,16.75
2022-09-18T18:51:14.841Z,20.40
2022-09-18T18:53:48.895Z,19.00
2022-09-18T18:56:25.251Z,15.25
2022-09-18T18:58:59.262Z,14.00
2022-09-18T19:01:33.649Z,16.00
2022-09-18T19:04:08.096Z,15.40
2022-09-18T19:06:42.211Z,21.40
2022-09-18T19:09:20.075Z,21.00
2022-09-18T19:11:54.810Z,16.80
2022-09-18T19:14:30.570Z,14.80
2022-09-18T19:17:04.553Z,17.80
2022-09-18T19:19:38.762Z,18.20
2022-09-18T19:22:17.987Z,15.00
2022-09-18T19:24:52.003Z,16.20
2022-09-18T19:27:26.109Z,16.00
2022-09-18T19:30:00.226Z,17.25
2022-09-18T19:32:34.551Z,15.40
2022-09-18T19:35:08.609Z,15.60
2022-09-18T19:37:43.589Z,17.00
2022-09-18T19:40:18.440Z,13.40
2022-09-18T19:42:52.603Z,15.00
2022-09-18T19:45:26.857Z,12.40
2022-09-18T19:48:00.992Z,14.75
2022-09-18T19:50:35.026Z,13.40
2022-09-18T19:53:09.076Z,15.60
2022-09-18T19:55:47.853Z,14.75
2022-09-18T19:58:22.163Z,19.40
2022-09-18T20:00:56.852Z,15.40
2022-09-18T20:03:31.108Z,16.40
2022-09-18T20:06:05.318Z,16.00
2022-09-18T20:08:39.481Z,17.75
2022-09-18T20:11:13.754Z,16.60
2022-09-18T20:13:48.466Z,18.00
2022-09-18T20:16:23.428Z,16.60
2022-09-18T20:18:57.694Z,13.50
2022-09-18T20:21:32.045Z,15.00
2022-09-18T20:24:06.173Z,17.00
2022-09-18T20:26:40.327Z,20.25
2022-09-18T20:29:16.078Z,15.40
2022-09-18T20:31:51.181Z,18.25
2022-09-18T20:34:25.908Z,12.60
2022-09-18T20:37:00.010Z,16.00
2022-09-18T20:39:36.949Z,14.00
2022-09-18T20:42:12.106Z,15.50
2022-09-18T20:44:46.296Z,13.50
2022-09-18T20:47:20.819Z,13.33
2022-09-18T20:49:55.193Z,16.00
2022-09-18T20:52:30.608Z,13.80
2022-09-18T20:55:04.654Z,13.00
2022-09-18T20:57:38.695Z,13.00
2022-09-18T21:00:13.469Z,14.80
2022-09-18T21:02:50.296Z,12.00
2022-09-18T21:05:25.295Z,11.20
2022-09-18T21:08:04.000Z,16.00
2022-09-18T21:10:47.436Z,13.75
2022-09-18T21:13:21.422Z,19.75
2022-09-18T21:15:55.898Z,11.00
2022-09-18T21:18:30.264Z,11.75
2022-09-18T21:21:04.362Z,10.00
2022-09-18T21:23:56.715Z,12.25
2022-09-18T21:26:34.022Z,11.00
2022-09-18T21:29:08.140Z,13.80
2022-09-18T21:31:45.138Z,11.40
2022-09-18T21:34:24.625Z,11.60
2022-09-18T21:36:59.022Z,13.00
2022-09-18T21:39:33.217Z,9.25
2022-09-18T21:42:08.100Z,14.80
2022-09-18T21:44:42.328Z,13.60
2022-09-18T21:47:16.426Z,13.50
2022-09-18T21:49:50.607Z,13.75
2022-09-18T21:52:24.626Z,11.40
2022-09-18T21:54:58.661Z,11.00
2022-09-18T21:57:32.641Z,10.50
2022-09-18T22:00:06.833Z,10.50
2022-09-18T22:02:44.076Z,12.50
2022-09-18T22:05:18.725Z,10.00
2022-09-18T22:07:52.864Z,13.75
2022-09-18T22:10:27.052Z,9.40
2022-09-18T22:13:01.269Z,9.00
2022-09-18T22:15:35.263Z,11.00
2022-09-18T22:18:09.419Z,10.00
2022-09-18T22:20:43.431Z,10.80
2022-09-18T22:23:18.006Z,11.00
2022-09-18T22:25:52.622Z,12.75
2022-09-18T22:28:27.356Z,10.00
2022-09-18T22:31:02.217Z,13.75
2022-09-18T22:33:36.372Z,11.00
2022-09-18T22:36:10.451Z,10.50
2022-09-18T22:38:44.583Z,11.00
2022-09-18T22:41:18.859Z,11.00
2022-09-18T22:43:53.656Z,12.80
2022-09-18T22:46:27.965Z,9.50
2022-09-18T22:49:02.241Z,7.50
2022-09-18T22:51:36.544Z,11.40
2022-09-18T22:54:10.506Z,11.00
2022-09-18T22:56:45.677Z,11.00
2022-09-18T22:59:19.831Z,12.33
2022-09-18T23:01:54.660Z,10.20
2022-09-18T23:04:29.964Z,11.00
2022-09-18T23:07:09.126Z,11.00
2022-09-18T23:09:43.285Z,13.50
2022-09-18T23:12:17.586Z,16.40
2022-09-18T23:14:51.697Z,9.50
2022-09-18T23:17:25.788Z,13.00
2022-09-18T23:20:02.879Z,11.00
2022-09-18T23:22:37.911Z,11.75
2022-09-18T23:25:17.267Z,13.20
2022-09-18T23:28:10.346Z,14.20
2022-09-18T23:30:44.493Z,12.80
2022-09-18T23:33:20.210Z,13.00
2022-09-18T23:35:54.218Z,10.50
2022-09-18T23:38:29.185Z,10.20
2022-09-18T23:41:03.168Z,11.00
2022-09-18T23:43:37.411Z,11.75
2022-09-18T23:46:11.541Z,13.00
2022-09-18T23:48:45.735Z,12.00
2022-09-18T23:51:20.050Z,10.20
2022-09-18T23:53:54.308Z,13.00
2022-09-18T23:56:28.664Z,11.60
2022-09-18T23:59:02.815Z,11.40
